Time;durP1;ratioP1;P1;durP2;ratioP2;P2;SDS_P1;SDS_P2;PMS_P1;PMS_P2;Temp;Humidity;BMP_temperature;BMP_pressure;BME280_temperature;BME280_humidity;BME280_pressure;Samples;Min_cycle;Max_cycle;Signal;HPM_P1;HPM_P2
2021/06/09 00:01:09;;;;;;;5.97;5.47;;;;;;;18.40;69.50;94306.56;828207;71;30542;-76
2021/06/09 00:16:16;;;;;;;6.22;5.67;;;;;;;18.58;70.04;94344.22;827540;71;33204;-77
2021/06/09 00:31:09;;;;;;;7.08;6.37;;;;;;;18.44;70.03;94339.88;828247;71;30217;-77
2021/06/09 00:46:10;;;;;;;6.85;6.25;;;;;;;18.39;70.25;94335.59;834077;71;29747;-76
2021/06/09 01:01:14;;;;;;;6.62;6.10;;;;;;;18.11;70.85;94334.30;828400;71;31971;-77
2021/06/09 01:16:10;;;;;;;6.22;5.70;;;;;;;18.18;70.21;94343.77;828554;71;30276;-78
2021/06/09 01:31:09;;;;;;;6.53;6.03;;;;;;;18.22;70.72;94340.64;835314;71;29710;-77
2021/06/09 01:46:20;;;;;;;6.25;5.70;;;;;;;18.16;70.51;94332.70;829212;71;32719;-79
2021/06/09 02:01:16;;;;;;;6.42;5.92;;;;;;;17.93;70.79;94346.52;834870;71;32727;-77
2021/06/09 02:16:08;;;;;;;8.40;7.60;;;;;;;17.90;70.71;94352.49;834106;71;29670;-77
2021/06/09 02:31:13;;;;;;;11.38;10.28;;;;;;;18.03;70.47;94363.09;830135;70;31613;-80
2021/06/09 02:46:24;;;;;;;10.45;8.65;;;;;;;18.12;70.42;94357.06;834033;71;30728;-76
2021/06/09 03:16:13;;;;;;;12.15;10.85;;;;;;;18.01;71.43;94354.89;833868;71;31388;-79
2021/06/09 03:31:15;;;;;;;13.95;11.50;;;;;;;17.61;73.05;94351.66;835486;71;32061;-78
2021/06/09 03:46:09;;;;;;;11.55;10.30;;;;;;;17.76;73.03;94360.83;829536;71;29774;-77
2021/06/09 04:01:11;;;;;;;14.47;12.33;;;;;;;17.82;73.02;94359.48;828824;71;29823;-76
2021/06/09 04:16:16;;;;;;;17.35;14.55;;;;;;;17.33;74.78;94354.81;827669;71;32797;-77
2021/06/09 04:31:22;;;;;;;18.30;15.05;;;;;;;17.16;76.47;94367.77;827505;71;33277;-77
2021/06/09 04:46:21;;;;;;;18.40;13.35;;;;;;;17.26;77.03;94384.55;827241;71;33211;-78
2021/06/09 05:01:09;;;;;;;16.50;13.80;;;;;;;17.26;76.80;94378.48;833831;71;31144;-76
2021/06/09 05:16:18;;;;;;;17.70;13.58;;;;;;;17.44;75.55;94387.75;821375;71;33204;-77
2021/06/09 05:31:10;;;;;;;18.10;13.60;;;;;;;17.92;75.05;94392.75;834541;71;30262;-78
2021/06/09 05:46:14;;;;;;;19.27;16.55;;;;;;;17.67;74.79;94393.91;827473;71;32701;-77
2021/06/09 06:01:15;;;;;;;16.07;14.38;;;;;;;17.91;75.53;94387.23;827557;71;32736;-75
2021/06/09 06:16:08;;;;;;;16.85;15.05;;;;;;;18.66;74.05;94375.73;809930;70;29854;-77
2021/06/09 06:31:14;;;;;;;16.55;14.70;;;;;;;20.47;68.37;94369.39;834112;71;29712;-77
2021/06/09 06:46:17;;;;;;;15.43;13.90;;;;;;;22.56;61.77;94374.48;828299;71;32803;-77
2021/06/09 07:01:14;;;;;;;11.73;10.50;;;;;;;23.72;56.87;94369.69;827799;71;33249;-77
2021/06/09 07:16:10;;;;;;;9.30;8.40;;;;;;;24.44;52.47;94368.64;828216;71;30209;-75
2021/06/09 07:31:21;;;;;;;8.03;7.33;;;;;;;25.73;47.28;94372.75;828053;71;32688;-80
2021/06/09 07:46:16;;;;;;;9.60;8.80;;;;;;;27.49;45.28;165920.03;834047;71;32679;-77
2021/06/09 08:01:15;;;;;;;8.87;8.07;;;;;;;28.91;42.39;94360.30;828165;71;33178;-77
2021/06/09 08:16:15;;;;;;;7.70;7.00;;;;;;;29.75;40.63;94371.51;828240;71;32897;-74
2021/06/09 08:31:12;;;;;;;7.70;7.10;;;;;;;29.94;40.05;94371.34;828286;71;30848;-76
2021/06/09 08:46:11;;;;;;;8.00;7.40;;;;;;;30.33;38.76;94360.94;834256;71;30297;-75
2021/06/09 09:16:15;;;;;;;6.33;5.83;;;;;;;29.47;36.20;94361.17;827693;71;33209;-76
2021/06/09 09:31:15;;;;;;;6.17;5.57;;;;;;;29.56;36.74;94361.38;829880;71;32251;-76
2021/06/09 09:46:17;;;;;;;5.20;4.90;;;;;;;29.68;35.25;94341.84;828436;71;29814;-77
2021/06/09 10:01:22;;;;;;;5.87;4.73;;;;;;;30.40;33.14;94330.26;835130;71;32697;-75
2021/06/09 10:16:28;;;;;;;4.40;4.20;;;;;;;30.23;32.92;94319.94;828491;71;29773;-75
2021/06/09 10:31:08;;;;;;;4.97;4.50;;;;;;;30.82;31.71;94302.02;828341;71;29693;-75
2021/06/09 10:46:11;;;;;;;5.47;5.07;;;;;;;30.46;33.20;94296.08;828335;71;30235;-76
2021/06/09 11:01:09;;;;;;;5.17;4.87;;;;;;;30.45;34.08;94287.17;828467;71;30784;-75
2021/06/09 11:16:14;;;;;;;4.53;4.13;;;;;;;31.44;33.51;94264.88;827072;71;29746;-76
2021/06/09 11:31:28;;;;;;;5.00;4.63;;;;;;;31.14;30.63;94261.37;827239;71;33207;-75
2021/06/09 11:46:34;;;;;;;5.10;4.80;;;;;;;30.93;31.55;94242.94;828316;71;30744;-75
2021/06/09 12:01:18;;;;;;;4.10;3.90;;;;;;;29.96;30.62;94226.16;828107;71;32780;-76
2021/06/09 12:16:21;;;;;;;4.00;3.80;;;;;;;28.97;32.67;94241.13;828350;71;29652;-76
2021/06/09 12:31:11;;;;;;;5.10;4.70;;;;;;;27.24;35.33;94235.95;829321;71;29761;-77
2021/06/09 12:46:15;;;;;;;5.00;4.60;;;;;;;27.07;37.14;94221.48;827383;71;33195;-75
2021/06/09 13:01:12;;;;;;;4.80;4.50;;;;;;;27.35;35.69;94200.23;829514;71;30184;-76
2021/06/09 13:16:17;;;;;;;5.20;4.80;;;;;;;26.41;37.64;94189.35;828414;71;31981;-75
2021/06/09 13:31:10;;;;;;;6.17;5.67;;;;;;;25.92;41.06;94192.00;828758;71;30337;-78
2021/06/09 13:46:10;;;;;;;6.60;5.90;;;;;;;25.89;40.77;94186.02;800112;74;30885;-77
2021/06/09 14:01:16;;;;;;;6.17;5.57;;;;;;;24.49;45.19;94175.11;828365;71;30186;-73
2021/06/09 14:16:10;;;;;;;6.27;5.67;;;;;;;24.38;45.12;94179.14;828870;71;29705;-74
2021/06/09 14:31:23;;;;;;;5.50;5.00;;;;;;;24.83;44.75;94191.41;827478;71;32725;-75
2021/06/09 14:46:16;;;;;;;5.73;5.17;;;;;;;24.78;44.58;94175.88;835394;71;32727;-74
2021/06/09 15:16:08;;;;;;;5.77;5.37;;;;;;;24.55;44.93;94162.89;834119;71;29730;-74
2021/06/09 15:31:08;;;;;;;6.33;5.80;;;;;;;24.42;46.19;94186.44;828390;71;29718;-76
2021/06/09 15:46:10;;;;;;;6.00;5.50;;;;;;;24.51;48.97;94174.76;828180;71;30799;-78
2021/06/09 16:01:10;;;;;;;6.03;5.63;;;;;;;24.70;47.82;94181.07;828077;71;30880;-77
2021/06/09 16:16:10;;;;;;;6.60;6.10;;;;;;;24.85;47.81;94192.54;828343;71;29686;-77
2021/06/09 16:31:10;;;;;;;10.70;9.80;;;;;;;24.97;48.30;94214.19;825634;71;30218;-77
2021/06/09 16:46:14;;;;;;;8.93;7.00;;;;;;;24.99;48.23;94212.64;827534;71;33131;-76
2021/06/09 17:01:09;;;;;;;7.80;7.20;;;;;;;25.07;48.46;94213.40;828229;71;30328;-77
2021/06/09 17:16:15;;;;;;;7.37;6.70;;;;;;;25.03;47.96;94240.08;827536;71;32747;-76
2021/06/09 17:31:08;;;;;;;6.50;5.90;;;;;;;24.20;48.55;94255.56;828797;71;29783;-82
2021/06/09 18:16:14;;;;;;;6.23;5.73;;;;;;;22.68;54.14;94245.06;827894;71;29707;-82
2021/06/09 18:31:10;;;;;;;6.93;6.23;;;;;;;22.27;55.85;94255.23;828509;71;30303;-82
2021/06/09 18:46:09;;;;;;;7.30;6.60;;;;;;;21.93;58.17;94267.27;829301;71;29697;-82
2021/06/09 19:01:35;;;;;;;7.30;6.70;;;;;;;21.79;61.72;94288.48;835768;70;32834;-85
2021/06/09 19:31:34;;;;;;;8.80;7.40;;;;;;;21.96;60.95;94320.56;834005;71;32728;-87
2021/06/09 19:46:28;;;;;;;9.50;7.67;;;;;;;21.87;60.89;94309.38;817092;71;32802;-83
2021/06/09 20:01:16;;;;;;;8.87;7.60;;;;;;;21.93;61.33;94315.93;820740;71;29796;-81
2021/06/09 20:16:12;;;;;;;10.90;8.17;;;;;;;23.05;58.05;94311.86;834110;71;32555;-76
2021/06/09 20:31:16;;;;;;;10.13;9.20;;;;;;;23.39;56.48;94312.45;823200;71;32727;-77
2021/06/09 20:46:14;;;;;;;10.10;9.20;;;;;;;23.46;56.15;94320.34;828279;71;32696;-77
2021/06/09 21:16:09;;;;;;;8.73;7.93;;;;;;;23.44;55.35;94331.45;828273;71;30383;-77
2021/06/09 21:31:19;;;;;;;8.93;7.77;;;;;;;23.35;55.37;94315.69;827906;71;32761;-77
2021/06/09 21:46:09;;;;;;;8.07;7.47;;;;;;;23.23;55.33;94297.84;833926;71;30365;-77
2021/06/09 22:01:09;;;;;;;6.83;6.33;;;;;;;23.12;54.59;94298.53;819756;70;30327;-77
2021/06/09 22:16:19;;;;;;;8.40;7.60;;;;;;;23.09;54.58;94315.33;827628;71;33194;-77
2021/06/09 22:31:14;;;;;;;7.10;6.40;;;;;;;23.09;54.79;94329.28;827647;71;32785;-77
2021/06/09 22:46:16;;;;;;;9.13;8.23;;;;;;;23.02;55.17;94306.50;827379;71;32789;-77
2021/06/09 23:01:10;;;;;;;7.50;6.93;;;;;;;22.93;55.55;94300.08;834039;71;30795;-76
2021/06/09 23:16:09;;;;;;;9.30;7.87;;;;;;;22.91;55.45;94292.45;833936;71;30073;-76
2021/06/09 23:31:10;;;;;;;7.17;6.63;;;;;;;22.88;55.16;94278.45;833975;71;30711;-77
2021/06/09 23:46:22;;;;;;;7.30;6.67;;;;;;;22.80;55.32;94279.55;828249;71;29714;-78
